| time (UTC) | temp C | wind direction | speed KPH | gust KPH | rain 1hr cm | rain 24hr cm | rain mn cm | humidity % | barometer mb |
| 20260510202856 | 30 | 110 | 12.9 | 16.1 | 0.00 | 0.00 | 0.00 | 75 | 1014.3 |
| 20260510202353 | 30 | 150 | 16.1 | 19.3 | 0.00 | 0.00 | 0.00 | 76 | 1014.1 |
| 20260510201849 | 30 | 101 | 14.5 | 16.1 | 0.00 | 0.00 | 0.00 | 75 | 1014.3 |
| 20260510201347 | 30 | 169 | 19.3 | 24.1 | 0.00 | 0.00 | 0.00 | 74 | 1014.3 |
| 20260510200843 | 30 | 163 | 14.5 | 19.3 | 0.00 | 0.00 | 0.00 | 73 | 1014.5 |
| 20260510200342 | 30 | 103 | 11.3 | 16.1 | 0.00 | 0.00 | 0.00 | 76 | 1014.4 |
| 20260510195837 | 30 | 109 | 20.9 | 27.4 | 0.00 | 0.00 | 0.00 | 75 | 1014.5 |
| 20260510195334 | 31 | 81 | 8.0 | 14.5 | 0.00 | 0.00 | 0.00 | 73 | 1014.4 |
| 20260510194829 | 30 | 143 | 9.7 | 14.5 | 0.00 | 0.00 | 0.00 | 74 | 1014.6 |
| 20260510194325 | 30 | 87 | 17.7 | 22.5 | 0.00 | 0.00 | 0.00 | 74 | 1014.7 |
| 20260510193821 | 30 | 137 | 22.5 | 30.6 | 0.00 | 0.00 | 0.00 | 74 | 1014.7 |
| 20260510193316 | 30 | 94 | 14.5 | 16.1 | 0.00 | 0.00 | 0.00 | 74 | 1014.8 |
| 20260510192812 | 30 | 137 | 14.5 | 16.1 | 0.00 | 0.00 | 0.00 | 74 | 1014.7 |
| 20260510192307 | 31 | 96 | 19.3 | 22.5 | 0.00 | 0.00 | 0.00 | 73 | 1014.6 |
| 20260510191804 | 30 | 133 | 11.3 | 19.3 | 0.00 | 0.00 | 0.00 | 74 | 1014.9 |
| 20260510191300 | 30 | 119 | 20.9 | 27.4 | 0.00 | 0.00 | 0.00 | 73 | 1014.9 |
| 20260510190758 | 31 | 139 | 22.5 | 33.8 | 0.00 | 0.00 | 0.00 | 71 | 1014.6 |
| 20260510190254 | 30 | 110 | 14.5 | 19.3 | 0.00 | 0.00 | 0.00 | 75 | 1014.8 |
| 20260510185750 | 31 | 47 | 14.5 | 24.1 | 0.00 | 0.00 | 0.00 | 74 | 1014.6 |
| 20260510185249 | 31 | 106 | 16.1 | 19.3 | 0.00 | 0.00 | 0.00 | 74 | 1014.9 |
| 20260510184745 | 31 | 131 | 14.5 | 24.1 | 0.00 | 0.00 | 0.00 | 71 | 1015.1 |
| 20260510184242 | 31 | 105 | 24.1 | 30.6 | 0.00 | 0.00 | 0.00 | 73 | 1014.9 |
| 20260510183737 | 31 | 107 | 14.5 | 19.3 | 0.00 | 0.00 | 0.00 | 70 | 1014.9 |
| 20260510183232 | 31 | 107 | 11.3 | 16.1 | 0.00 | 0.00 | 0.00 | 70 | 1014.9 |
| 20260510182729 | 31 | 114 | 9.7 | 11.3 | 0.00 | 0.00 | 0.00 | 72 | 1015.0 |
| 20260510182225 | 32 | 99 | 9.7 | 16.1 | 0.00 | 0.00 | 0.00 | 70 | 1014.8 |
| 20260510181722 | 31 | 102 | 11.3 | 16.1 | 0.00 | 0.00 | 0.00 | 70 | 1015.2 |
| 20260510181219 | 31 | 88 | 6.4 | 11.3 | 0.00 | 0.00 | 0.00 | 70 | 1015.1 |
| 20260510180714 | 31 | 74 | 11.3 | 14.5 | 0.00 | 0.00 | 0.00 | 70 | 1014.9 |
| 20260510180212 | 32 | 84 | 9.7 | 14.5 | 0.00 | 0.00 | 0.00 | 69 | 1015.1 |
| 20260510175708 | 31 | 138 | 14.5 | 22.5 | 0.00 | 0.00 | 0.00 | 71 | 1015.0 |
| 20260510175204 | 31 | 92 | 11.3 | 16.1 | 0.00 | 0.00 | 0.00 | 74 | 1014.9 |
| 20260510174701 | 31 | 145 | 9.7 | 11.3 | 0.00 | 0.00 | 0.00 | 71 | 1015.0 |
| 20260510174159 | 30 | 103 | 12.9 | 16.1 | 0.00 | 0.00 | 0.00 | 73 | 1015.3 |
| 20260510173655 | 30 | 82 | 11.3 | 14.5 | 0.00 | 0.00 | 0.00 | 75 | 1015.0 |
| 20260510173151 | 31 | 92 | 19.3 | 24.1 | 0.00 | 0.00 | 0.00 | 71 | 1015.0 |
| 20260510172646 | 30 | 111 | 6.4 | 8.0 | 0.00 | 0.00 | 0.00 | 73 | 1015.0 |
| 20260510172143 | 31 | 61 | 11.3 | 14.5 | 0.00 | 0.00 | 0.00 | 72 | 1015.2 |
| 20260510171640 | 31 | 141 | 16.1 | 16.1 | 0.00 | 0.00 | 0.00 | 71 | 1015.3 |
| 20260510171137 | 30 | 132 | 6.4 | 11.3 | 0.00 | 0.00 | 0.00 | 73 | 1015.1 |
| 20260510170633 | 30 | 81 | 12.9 | 16.1 | 0.00 | 0.00 | 0.00 | 73 | 1015.3 |
| 20260510170130 | 30 | 74 | 11.3 | 16.1 | 0.00 | 0.00 | 0.00 | 74 | 1015.1 |
| 20260510165626 | 30 | 90 | 11.3 | 19.3 | 0.00 | 0.00 | 0.00 | 75 | 1015.1 |
| 20260510165121 | 30 | 94 | 9.7 | 16.1 | 0.00 | 0.00 | 0.00 | 75 | 1015.2 |
| 20260510164619 | 30 | 99 | 9.7 | 14.5 | 0.00 | 0.00 | 0.00 | 74 | 1015.2 |
| 20260510164116 | 30 | 42 | 12.9 | 16.1 | 0.00 | 0.00 | 0.00 | 74 | 1014.9 |
| 20260510163611 | 30 | 135 | 8.0 | 11.3 | 0.00 | 0.00 | 0.00 | 74 | 1015.1 |
| 20260510163108 | 29 | 80 | 3.2 | 4.8 | 0.00 | 0.00 | 0.00 | 78 | 1014.8 |
| 20260510162603 | 30 | 59 | 4.8 | 4.8 | 0.00 | 0.00 | 0.00 | 77 | 1015.0 |
| 20260510162059 | 30 | 106 | 6.4 | 8.0 | 0.00 | 0.00 | 0.00 | 77 | 1015.0 |
| 20260510161555 | 29 | 103 | 6.4 | 11.3 | 0.00 | 0.00 | 0.00 | 76 | 1014.9 |
| 20260510161052 | 30 | 132 | 8.0 | 8.0 | 0.00 | 0.00 | 0.00 | 75 | 1014.8 |
| 20260510160549 | 28 | 114 | 6.4 | 8.0 | 0.00 | 0.00 | 0.00 | 78 | 1014.8 |
| 20260510160048 | 28 | 95 | 6.4 | 8.0 | 0.00 | 0.00 | 0.00 | 78 | 1015.2 |
| 20260510155545 | 29 | 69 | 9.7 | 14.5 | 0.00 | 0.00 | 0.00 | 77 | 1015.0 |
| 20260510155042 | 29 | 101 | 0.0 | 0.0 | 0.00 | 0.00 | 0.00 | 79 | 1015.0 |
| 20260510154537 | 28 | 101 | 4.8 | 4.8 | 0.00 | 0.00 | 0.00 | 79 | 1014.8 |
| 20260510154033 | 28 | 66 | 3.2 | 4.8 | 0.00 | 0.00 | 0.00 | 80 | 1015.0 |
| 20260510153528 | 29 | 140 | 12.9 | 16.1 | 0.00 | 0.00 | 0.00 | 79 | 1015.0 |
| 20260510153025 | 28 | 61 | 4.8 | 4.8 | 0.00 | 0.00 | 0.00 | 81 | 1015.0 |
| 20260510152522 | 28 | 75 | 3.2 | 3.2 | 0.00 | 0.00 | 0.00 | 81 | 1014.8 |
| 20260510152018 | 28 | 115 | 4.8 | 4.8 | 0.00 | 0.00 | 0.00 | 81 | 1014.8 |
| 20260510151515 | 28 | 85 | 6.4 | 8.0 | 0.00 | 0.00 | 0.00 | 82 | 1015.0 |
| 20260510151013 | 28 | 203 | 4.8 | 4.8 | 0.00 | 0.00 | 0.00 | 81 | 1014.9 |
| 20260510150507 | 27 | 151 | 11.3 | 22.5 | 0.00 | 0.00 | 0.00 | 83 | 1014.7 |
| 20260510150004 | 27 | 125 | 4.8 | 4.8 | 0.00 | 0.00 | 0.00 | 83 | 1015.0 |
| 20260510145501 | 27 | 129 | 4.8 | 4.8 | 0.00 | 0.00 | 0.00 | 85 | 1014.9 |
| 20260510144957 | 27 | 122 | 11.3 | 14.5 | 0.00 | 0.00 | 0.00 | 85 | 1014.6 |
| 20260510144454 | 27 | 167 | 6.4 | 8.0 | 0.00 | 0.00 | 0.00 | 85 | 1014.5 |
| 20260510143949 | 27 | 167 | 6.4 | 8.0 | 0.00 | 0.00 | 0.00 | 85 | 1014.5 |
| 20260510143445 | 26 | 149 | 4.8 | 8.0 | 0.00 | 0.00 | 0.00 | 87 | 1014.4 |
| 20260510142942 | 26 | 163 | 11.3 | 16.1 | 0.00 | 0.00 | 0.00 | 87 | 1014.3 |
| 20260510142439 | 26 | 150 | 11.3 | 14.5 | 0.00 | 0.00 | 0.00 | 89 | 1014.5 |
| 20260510141935 | 26 | 182 | 4.8 | 4.8 | 0.00 | 0.00 | 0.00 | 90 | 1014.6 |
| 20260510141432 | 26 | 129 | 6.4 | 8.0 | 0.00 | 0.00 | 0.00 | 90 | 1014.7 |
| 20260510140929 | 25 | 163 | 6.4 | 8.0 | 0.00 | 0.00 | 0.00 | 92 | 1014.6 |
| 20260510140420 | 25 | 167 | 11.3 | 16.1 | 0.00 | 0.00 | 0.00 | 94 | 1014.6 |
| 20260510135919 | 25 | 184 | 8.0 | 8.0 | 0.00 | 0.00 | 0.00 | 95 | 1014.4 |
| 20260510135415 | 25 | 166 | 8.0 | 11.3 | 0.00 | 0.00 | 0.00 | 96 | 1014.5 |
| 20260510134913 | 25 | 133 | 6.4 | 8.0 | 0.00 | 0.00 | 0.00 | 96 | 1014.5 |
| 20260510134409 | 24 | 173 | 4.8 | 4.8 | 0.00 | 0.00 | 0.00 | 97 | 1014.4 |
| 20260510133905 | 24 | 156 | 11.3 | 16.1 | 0.00 | 0.00 | 0.00 | 97 | 1014.5 |
| 20260510133402 | 24 | 138 | 6.4 | 8.0 | 0.00 | 0.00 | 0.00 | 97 | 1014.4 |
| 20260510132857 | 24 | 160 | 6.4 | 8.0 | 0.00 | 0.00 | 0.00 | 97 | 1014.5 |
| 20260510132355 | 24 | 112 | 6.4 | 8.0 | 0.00 | 0.00 | 0.00 | 97 | 1014.5 |
| 20260510131852 | 24 | 158 | 9.7 | 11.3 | 0.00 | 0.00 | 0.00 | 97 | 1014.3 |
| 20260510131350 | 24 | 134 | 4.8 | 4.8 | 0.00 | 0.00 | 0.00 | 97 | 1014.6 |
| 20260510130846 | 23 | 104 | 1.6 | 3.2 | 0.00 | 0.00 | 0.00 | 97 | 1014.3 |
| 20260510130343 | 23 | 120 | 1.6 | 3.2 | 0.00 | 0.00 | 0.00 | 97 | 1014.2 |
| 20260510125840 | 23 | 107 | 0.0 | 3.2 | 0.00 | 0.00 | 0.00 | 97 | 1014.1 |
| 20260510125336 | 23 | 103 | 0.0 | 0.0 | 0.00 | 0.00 | 0.00 | 97 | 1014.1 |
| 20260510124833 | 23 | 95 | 0.0 | 0.0 | 0.00 | 0.00 | 0.00 | 97 | 1014.0 |
| 20260510124330 | 23 | 94 | 0.0 | 0.0 | 0.00 | 0.00 | 0.00 | 97 | 1013.9 |
| 20260510123826 | 23 | 89 | 0.0 | 0.0 | 0.00 | 0.00 | 0.00 | 97 | 1013.9 |
| 20260510123321 | 23 | 92 | 0.0 | 0.0 | 0.00 | 0.00 | 0.00 | 97 | 1013.7 |
| 20260510122818 | 23 | 94 | 0.0 | 0.0 | 0.00 | 0.00 | 0.00 | 97 | 1013.7 |
| 20260510122314 | 23 | 91 | 0.0 | 0.0 | 0.00 | 0.00 | 0.00 | 97 | 1013.8 |
| 20260510121810 | 23 | 92 | 3.2 | 4.8 | 0.00 | 0.00 | 0.00 | 97 | 1013.8 |
| 20260510121308 | 23 | 97 | 3.2 | 3.2 | 0.00 | 0.00 | 0.00 | 97 | 1013.4 |
| 20260510120805 | 23 | 100 | 0.0 | 0.0 | 0.00 | 0.00 | 0.00 | 97 | 1013.6 |
| 20260510120301 | 23 | 95 | 1.6 | 3.2 | 0.00 | 0.00 | 0.00 | 97 | 1013.5 |
| 20260510115757 | 23 | 94 | 0.0 | 0.0 | 0.00 | 0.00 | 0.00 | 97 | 1013.4 |
| 20260510115256 | 23 | 93 | 0.0 | 0.0 | 0.00 | 0.00 | 0.00 | 97 | 1013.7 |
| 20260510114756 | 23 | 91 | 0.0 | 0.0 | 0.00 | 0.00 | 0.00 | 97 | 1013.5 |
| 20260510114254 | 22 | 81 | 0.0 | 0.0 | 0.00 | 0.00 | 0.00 | 97 | 1013.6 |
| 20260510113754 | 22 | 81 | 0.0 | 0.0 | 0.00 | 0.00 | 0.00 | 97 | 1013.6 |
| 20260510113251 | 22 | 83 | 0.0 | 0.0 | 0.00 | 0.00 | 0.00 | 97 | 1013.5 |
| 20260510112747 | 22 | 82 | 0.0 | 0.0 | 0.00 | 0.00 | 0.00 | 97 | 1013.4 |
| 20260510112244 | 22 | 69 | 0.0 | 0.0 | 0.00 | 0.00 | 0.00 | 97 | 1013.3 |
| 20260510111740 | 22 | 69 | 0.0 | 0.0 | 0.00 | 0.00 | 0.00 | 97 | 1013.5 |
| 20260510111237 | 22 | 69 | 0.0 | 0.0 | 0.00 | 0.00 | 0.00 | 97 | 1013.3 |
| 20260510110737 | 22 | 70 | 0.0 | 0.0 | 0.00 | 0.00 | 0.00 | 97 | 1013.6 |
| 20260510110235 | 22 | 78 | 0.0 | 0.0 | 0.00 | 0.00 | 0.00 | 97 | 1013.3 |
| 20260510105734 | 22 | 78 | 0.0 | 0.0 | 0.00 | 0.00 | 0.00 | 97 | 1013.5 |
| 20260510105229 | 22 | 68 | 0.0 | 0.0 | 0.00 | 0.00 | 0.00 | 97 | 1013.5 |
| 20260510104726 | 22 | 76 | 0.0 | 0.0 | 0.00 | 0.00 | 0.00 | 97 | 1013.3 |
| 20260510104224 | 22 | 69 | 0.0 | 3.2 | 0.00 | 0.00 | 0.00 | 97 | 1013.3 |
| 20260510103720 | 22 | 61 | 3.2 | 3.2 | 0.00 | 0.00 | 0.00 | 97 | 1013.2 |
| 20260510103217 | 22 | 71 | 0.0 | 0.0 | 0.00 | 0.00 | 0.00 | 96 | 1013.1 |
| 20260510102717 | 22 | 74 | 0.0 | 0.0 | 0.00 | 0.00 | 0.00 | 96 | 1013.0 |
| 20260510102213 | 22 | 75 | 0.0 | 0.0 | 0.00 | 0.00 | 0.00 | 96 | 1013.3 |
| 20260510101711 | 22 | 75 | 0.0 | 0.0 | 0.00 | 0.00 | 0.00 | 96 | 1013.3 |
| 20260510101209 | 22 | 75 | 0.0 | 0.0 | 0.00 | 0.00 | 0.00 | 96 | 1013.3 |
| 20260510100704 | 22 | 74 | 0.0 | 0.0 | 0.00 | 0.00 | 0.00 | 96 | 1013.4 |
| 20260510100203 | 22 | 71 | 0.0 | 0.0 | 0.00 | 0.00 | 0.00 | 96 | 1013.4 |
| 20260510095658 | 22 | 67 | 1.6 | 3.2 | 0.00 | 0.00 | 0.00 | 96 | 1013.6 |
| 20260510095153 | 22 | 67 | 0.0 | 0.0 | 0.00 | 0.00 | 0.00 | 96 | 1013.4 |
| 20260510094651 | 22 | 62 | 1.6 | 3.2 | 0.00 | 0.00 | 0.00 | 96 | 1013.6 |
| 20260510094148 | 22 | 48 | 3.2 | 3.2 | 0.00 | 0.00 | 0.00 | 96 | 1013.4 |
| 20260510093644 | 22 | 86 | 0.0 | 0.0 | 0.00 | 0.00 | 0.00 | 96 | 1013.3 |
| 20260510093142 | 22 | 91 | 0.0 | 0.0 | 0.00 | 0.00 | 0.00 | 96 | 1013.2 |
| 20260510092638 | 22 | 107 | 0.0 | 0.0 | 0.00 | 0.00 | 0.00 | 96 | 1013.3 |
| 20260510092133 | 22 | 107 | 0.0 | 0.0 | 0.00 | 0.00 | 0.00 | 96 | 1013.1 |
| 20260510091629 | 21 | 122 | 0.0 | 0.0 | 0.00 | 0.00 | 0.00 | 96 | 1013.2 |
| 20260510091125 | 21 | 122 | 0.0 | 0.0 | 0.00 | 0.00 | 0.00 | 96 | 1013.4 |
| 20260510090617 | 21 | 122 | 0.0 | 0.0 | 0.00 | 0.00 | 0.00 | 96 | 1013.3 |
| 20260510090113 | 21 | 122 | 0.0 | 0.0 | 0.00 | 0.00 | 0.00 | 96 | 1013.2 |
| 20260510085608 | 21 | 122 | 0.0 | 0.0 | 0.00 | 0.00 | 0.00 | 96 | 1013.2 |
| 20260510085104 | 21 | 122 | 0.0 | 0.0 | 0.00 | 0.00 | 0.00 | 96 | 1013.1 |
| 20260510084600 | 22 | 132 | 0.0 | 0.0 | 0.00 | 0.00 | 0.00 | 95 | 1013.2 |
| 20260510084057 | 22 | 134 | 0.0 | 0.0 | 0.00 | 0.00 | 0.00 | 96 | 1012.9 |
| 20260510083553 | 22 | 123 | 0.0 | 0.0 | 0.00 | 0.00 | 0.00 | 96 | 1013.0 |
| 20260510083050 | 22 | 122 | 0.0 | 0.0 | 0.00 | 0.00 | 0.00 | 95 | 1013.1 |
| 20260510082547 | 22 | 122 | 0.0 | 0.0 | 0.00 | 0.00 | 0.00 | 95 | 1013.0 |
| 20260510082042 | 22 | 123 | 0.0 | 0.0 | 0.00 | 0.00 | 0.00 | 95 | 1013.2 |
| 20260510081537 | 22 | 138 | 0.0 | 0.0 | 0.00 | 0.00 | 0.00 | 95 | 1013.0 |
| 20260510081033 | 22 | 150 | 1.6 | 3.2 | 0.00 | 0.00 | 0.00 | 95 | 1013.1 |
| 20260510080532 | 22 | 131 | 0.0 | 0.0 | 0.00 | 0.00 | 0.00 | 95 | 1013.1 |
| 20260510080030 | 22 | 133 | 0.0 | 0.0 | 0.00 | 0.00 | 0.00 | 95 | 1013.2 |
| 20260510075527 | 22 | 129 | 0.0 | 0.0 | 0.00 | 0.00 | 0.00 | 95 | 1013.2 |
| 20260510075023 | 22 | 130 | 0.0 | 0.0 | 0.00 | 0.00 | 0.00 | 95 | 1013.4 |
| 20260510074521 | 22 | 151 | 1.6 | 3.2 | 0.00 | 0.00 | 0.00 | 95 | 1013.5 |
| 20260510074016 | 22 | 139 | 4.8 | 4.8 | 0.00 | 0.00 | 0.00 | 95 | 1013.7 |
| 20260510073513 | 22 | 122 | 0.0 | 3.2 | 0.00 | 0.00 | 0.00 | 95 | 1013.6 |
| 20260510073010 | 22 | 100 | 3.2 | 3.2 | 0.00 | 0.00 | 0.00 | 95 | 1013.7 |
| 20260510072506 | 22 | 87 | 0.0 | 0.0 | 0.00 | 0.00 | 0.00 | 95 | 1014.0 |
| 20260510072001 | 22 | 98 | 0.0 | 0.0 | 0.00 | 0.00 | 0.00 | 95 | 1013.7 |
| 20260510071458 | 22 | 95 | 0.0 | 0.0 | 0.00 | 0.00 | 0.00 | 95 | 1013.8 |
| 20260510070956 | 22 | 106 | 3.2 | 3.2 | 0.00 | 0.00 | 0.00 | 94 | 1013.7 |
| 20260510070453 | 22 | 89 | 0.0 | 0.0 | 0.00 | 0.00 | 0.00 | 94 | 1013.7 |
| 20260510065949 | 22 | 76 | 0.0 | 0.0 | 0.00 | 0.00 | 0.00 | 94 | 1013.9 |
| 20260510065446 | 22 | 79 | 1.6 | 3.2 | 0.00 | 0.00 | 0.00 | 94 | 1014.0 |
| 20260510064942 | 22 | 92 | 4.8 | 4.8 | 0.00 | 0.00 | 0.00 | 94 | 1013.7 |
| 20260510064440 | 22 | 100 | 1.6 | 3.2 | 0.00 | 0.00 | 0.00 | 94 | 1013.8 |
| 20260510063936 | 22 | 86 | 0.0 | 0.0 | 0.00 | 0.00 | 0.00 | 94 | 1013.9 |
| 20260510063432 | 22 | 92 | 0.0 | 0.0 | 0.00 | 0.00 | 0.00 | 94 | 1013.6 |
| 20260510062930 | 22 | 88 | 0.0 | 0.0 | 0.00 | 0.00 | 0.00 | 94 | 1013.7 |
| 20260510062425 | 22 | 76 | 0.0 | 0.0 | 0.00 | 0.00 | 0.00 | 94 | 1013.8 |
| 20260510061921 | 22 | 55 | 1.6 | 3.2 | 0.00 | 0.00 | 0.00 | 94 | 1013.6 |
| 20260510061418 | 22 | 116 | 0.0 | 0.0 | 0.00 | 0.00 | 0.00 | 94 | 1013.7 |
| 20260510060914 | 22 | 127 | 0.0 | 0.0 | 0.00 | 0.00 | 0.00 | 93 | 1013.5 |
| 20260510060410 | 22 | 117 | 0.0 | 0.0 | 0.00 | 0.00 | 0.00 | 93 | 1013.6 |
| 20260510055907 | 22 | 147 | 1.6 | 3.2 | 0.00 | 0.00 | 0.00 | 93 | 1013.5 |
| 20260510055402 | 22 | 163 | 1.6 | 3.2 | 0.00 | 0.00 | 0.00 | 93 | 1013.3 |
| 20260510054900 | 22 | 162 | 0.0 | 0.0 | 0.00 | 0.00 | 0.00 | 93 | 1013.2 |
| 20260510054356 | 22 | 142 | 0.0 | 0.0 | 0.00 | 0.00 | 0.00 | 93 | 1013.5 |
| 20260510053851 | 22 | 160 | 0.0 | 0.0 | 0.00 | 0.00 | 0.00 | 92 | 1013.5 |
| 20260510053347 | 22 | 135 | 0.0 | 0.0 | 0.00 | 0.00 | 0.00 | 92 | 1013.7 |
| 20260510052843 | 22 | 130 | 0.0 | 0.0 | 0.00 | 0.00 | 0.00 | 92 | 1013.7 |
| 20260510052339 | 22 | 145 | 3.2 | 3.2 | 0.00 | 0.00 | 0.00 | 91 | 1013.7 |
| 20260510051836 | 22 | 144 | 3.2 | 4.8 | 0.00 | 0.00 | 0.00 | 91 | 1013.3 |
| 20260510051332 | 23 | 151 | 3.2 | 4.8 | 0.00 | 0.00 | 0.00 | 91 | 1013.5 |
| 20260510050830 | 23 | 125 | 4.8 | 4.8 | 0.00 | 0.00 | 0.00 | 91 | 1013.5 |
| 20260510050326 | 23 | 97 | 4.8 | 8.0 | 0.00 | 0.00 | 0.00 | 91 | 1013.7 |
| 20260510045823 | 23 | 119 | 1.6 | 3.2 | 0.00 | 0.99 | 0.99 | 91 | 1013.3 |
| 20260510045320 | 23 | 146 | 8.0 | 8.0 | 0.00 | 0.99 | 0.99 | 91 | 1013.5 |
| 20260510044817 | 23 | 145 | 3.2 | 4.8 | 0.00 | 0.99 | 0.99 | 90 | 1013.2 |
| 20260510044314 | 23 | 103 | 3.2 | 3.2 | 0.00 | 0.99 | 0.99 | 90 | 1013.4 |
| 20260510043810 | 23 | 107 | 4.8 | 4.8 | 0.00 | 0.99 | 0.99 | 90 | 1013.6 |
| 20260510043306 | 23 | 86 | 8.0 | 11.3 | 0.00 | 0.99 | 0.99 | 90 | 1013.5 |
| 20260510042804 | 23 | 77 | 4.8 | 8.0 | 0.00 | 0.99 | 0.99 | 90 | 1013.5 |
| 20260510042259 | 23 | 90 | 1.6 | 3.2 | 0.00 | 0.99 | 0.99 | 89 | 1013.7 |
| 20260510041756 | 23 | 65 | 3.2 | 3.2 | 0.00 | 0.99 | 0.99 | 89 | 1013.5 |
| 20260510041254 | 23 | 77 | 4.8 | 8.0 | 0.00 | 0.99 | 0.99 | 89 | 1013.5 |
| 20260510040751 | 23 | 127 | 6.4 | 8.0 | 0.00 | 0.99 | 0.99 | 88 | 1013.2 |
| 20260510040248 | 23 | 111 | 4.8 | 8.0 | 0.00 | 0.99 | 0.99 | 88 | 1013.1 |
| 20260510035742 | 23 | 100 | 3.2 | 4.8 | 0.00 | 0.99 | 0.99 | 88 | 1013.2 |
| 20260510035233 | 23 | 100 | 3.2 | 4.8 | 0.00 | 0.99 | 0.99 | 87 | 1013.0 |
| 20260510034729 | 23 | 130 | 6.4 | 8.0 | 0.00 | 0.99 | 0.99 | 87 | 1013.1 |
| 20260510034228 | 23 | 103 | 8.0 | 11.3 | 0.00 | 0.99 | 0.99 | 86 | 1013.1 |
| 20260510033723 | 23 | 84 | 1.6 | 3.2 | 0.00 | 0.99 | 0.99 | 86 | 1013.0 |
| 20260510033221 | 23 | 136 | 6.4 | 8.0 | 0.00 | 0.99 | 0.99 | 86 | 1012.7 |
| 20260510032717 | 23 | 137 | 3.2 | 4.8 | 0.00 | 0.99 | 0.99 | 85 | 1012.8 |
| 20260510032213 | 23 | 125 | 4.8 | 4.8 | 0.00 | 0.99 | 0.99 | 85 | 1012.8 |
| 20260510031708 | 23 | 133 | 6.4 | 8.0 | 0.00 | 0.99 | 0.99 | 85 | 1012.6 |
| 20260510031204 | 23 | 155 | 4.8 | 4.8 | 0.00 | 0.99 | 0.99 | 85 | 1012.4 |
| 20260510030703 | 24 | 152 | 4.8 | 4.8 | 0.00 | 0.99 | 0.99 | 84 | 1012.3 |
| 20260510030202 | 24 | 126 | 1.6 | 3.2 | 0.00 | 0.99 | 0.99 | 84 | 1012.2 |
| 20260510025659 | 24 | 163 | 4.8 | 4.8 | 0.00 | 0.99 | 0.99 | 83 | 1012.4 |
| 20260510025156 | 24 | 203 | 4.8 | 8.0 | 0.00 | 0.99 | 0.99 | 82 | 1012.0 |
| 20260510024653 | 25 | 181 | 8.0 | 11.3 | 0.00 | 0.99 | 0.99 | 82 | 1011.9 |
| 20260510024149 | 25 | 172 | 4.8 | 4.8 | 0.00 | 0.99 | 0.99 | 81 | 1011.8 |
| 20260510023644 | 25 | 170 | 11.3 | 16.1 | 0.00 | 0.99 | 0.99 | 80 | 1012.0 |
| 20260510023142 | 25 | 139 | 3.2 | 4.8 | 0.00 | 0.99 | 0.99 | 80 | 1012.0 |
| 20260510022637 | 25 | 180 | 4.8 | 4.8 | 0.00 | 0.99 | 0.99 | 79 | 1012.0 |
| 20260510022132 | 25 | 146 | 6.4 | 8.0 | 0.00 | 0.99 | 0.99 | 78 | 1012.0 |
| 20260510021628 | 25 | 148 | 4.8 | 4.8 | 0.00 | 0.99 | 0.99 | 78 | 1011.9 |
| 20260510021126 | 25 | 131 | 9.7 | 14.5 | 0.00 | 0.99 | 0.99 | 77 | 1012.0 |
| 20260510020620 | 25 | 163 | 8.0 | 8.0 | 0.00 | 0.99 | 0.99 | 76 | 1011.7 |
| 20260510020115 | 25 | 153 | 6.4 | 8.0 | 0.00 | 0.99 | 0.99 | 75 | 1011.8 |
| 20260510015612 | 26 | 141 | 4.8 | 4.8 | 0.00 | 0.99 | 0.99 | 75 | 1011.7 |
| 20260510015108 | 26 | 126 | 6.4 | 11.3 | 0.00 | 0.99 | 0.99 | 74 | 1011.7 |
| 20260510014604 | 26 | 129 | 4.8 | 4.8 | 0.00 | 0.99 | 0.99 | 73 | 1011.8 |
| 20260510014101 | 26 | 155 | 6.4 | 8.0 | 0.00 | 0.99 | 0.99 | 72 | 1011.4 |
| 20260510013555 | 26 | 137 | 6.4 | 8.0 | 0.00 | 0.99 | 0.99 | 72 | 1011.4 |
| 20260510013052 | 26 | 152 | 6.4 | 8.0 | 0.00 | 0.99 | 0.99 | 71 | 1011.4 |
| 20260510012545 | 26 | 123 | 11.3 | 14.5 | 0.00 | 0.99 | 0.99 | 70 | 1011.4 |
| 20260510012042 | 26 | 144 | 4.8 | 4.8 | 0.00 | 0.99 | 0.99 | 70 | 1011.4 |
| 20260510011542 | 27 | 149 | 8.0 | 14.5 | 0.00 | 0.99 | 0.99 | 69 | 1011.4 |
| 20260510011038 | 27 | 144 | 14.5 | 19.3 | 0.00 | 0.99 | 0.99 | 69 | 1011.1 |
| 20260510010535 | 27 | 83 | 12.9 | 19.3 | 0.00 | 0.99 | 0.99 | 68 | 1011.3 |
| 20260510010032 | 27 | 139 | 14.5 | 19.3 | 0.00 | 0.99 | 0.99 | 67 | 1011.2 |
| 20260510005527 | 27 | 135 | 8.0 | 11.3 | 0.00 | 0.99 | 0.99 | 67 | 1011.1 |
| 20260510005025 | 28 | 148 | 16.1 | 22.5 | 0.00 | 0.99 | 0.99 | 65 | 1011.3 |
| 20260510004523 | 28 | 161 | 9.7 | 14.5 | 0.00 | 0.99 | 0.99 | 66 | 1011.0 |
| 20260510004021 | 28 | 95 | 16.1 | 22.5 | 0.00 | 0.99 | 0.99 | 64 | 1011.1 |
| 20260510003517 | 28 | 121 | 6.4 | 8.0 | 0.00 | 0.99 | 0.99 | 65 | 1011.0 |
| 20260510003013 | 28 | 162 | 12.9 | 22.5 | 0.00 | 0.99 | 0.99 | 63 | 1011.2 |
| 20260510002508 | 28 | 94 | 9.7 | 11.3 | 0.00 | 0.99 | 0.99 | 64 | 1011.0 |
| 20260510002005 | 28 | 101 | 11.3 | 16.1 | 0.00 | 0.99 | 0.99 | 64 | 1011.1 |
| 20260510001503 | 29 | 139 | 11.3 | 14.5 | 0.00 | 0.99 | 0.99 | 65 | 1011.3 |
| 20260510001001 | 29 | 146 | 20.9 | 24.1 | 0.00 | 0.99 | 0.99 | 64 | 1011.2 |
| 20260510000456 | 30 | 146 | 19.3 | 24.1 | 0.00 | 0.99 | 0.99 | 64 | 1011.1 |
| 20260509235952 | 29 | 145 | 17.7 | 24.1 | 0.00 | 0.99 | 0.99 | 65 | 1011.0 |
| 20260509235449 | 30 | 177 | 17.7 | 24.1 | 0.00 | 0.99 | 0.99 | 65 | 1011.0 |
| 20260509234945 | 30 | 139 | 25.7 | 33.8 | 0.00 | 0.99 | 0.99 | 64 | 1011.0 |
| 20260509234443 | 30 | 140 | 12.9 | 19.3 | 0.00 | 0.99 | 0.99 | 65 | 1010.8 |
| 20260509233941 | 30 | 107 | 19.3 | 24.1 | 0.00 | 0.99 | 0.99 | 64 | 1011.1 |
| 20260509233438 | 30 | 143 | 12.9 | 16.1 | 0.00 | 0.99 | 0.99 | 65 | 1011.0 |
| 20260509232933 | 30 | 94 | 20.9 | 33.8 | 0.00 | 0.99 | 0.99 | 65 | 1011.2 |
| 20260509232432 | 31 | 98 | 19.3 | 19.3 | 0.00 | 0.99 | 0.99 | 63 | 1011.1 |
| 20260509231927 | 31 | 126 | 11.3 | 14.5 | 0.00 | 0.99 | 0.99 | 61 | 1010.9 |
| 20260509231424 | 31 | 128 | 6.4 | 8.0 | 0.00 | 0.99 | 0.99 | 61 | 1010.8 |
| 20260509230922 | 31 | 80 | 16.1 | 33.8 | 0.00 | 0.99 | 0.99 | 61 | 1011.0 |
| 20260509230419 | 31 | 75 | 9.7 | 14.5 | 0.00 | 0.99 | 0.99 | 60 | 1010.9 |
| 20260509225915 | 31 | 115 | 14.5 | 19.3 | 0.00 | 0.99 | 0.99 | 60 | 1011.0 |
| 20260509225411 | 31 | 113 | 14.5 | 22.5 | 0.00 | 0.99 | 0.99 | 60 | 1011.0 |
| 20260509224908 | 31 | 197 | 17.7 | 19.3 | 0.00 | 0.99 | 0.99 | 60 | 1011.0 |
| 20260509224403 | 31 | 138 | 9.7 | 14.5 | 0.00 | 0.99 | 0.99 | 60 | 1011.0 |
| 20260509223901 | 32 | 146 | 20.9 | 24.1 | 0.00 | 0.99 | 0.99 | 59 | 1010.9 |
| 20260509223357 | 32 | 180 | 8.0 | 11.3 | 0.00 | 0.99 | 0.99 | 57 | 1010.9 |
| 20260509222854 | 32 | 91 | 4.8 | 4.8 | 0.00 | 0.99 | 0.99 | 57 | 1010.9 |
| 20260509222349 | 32 | 86 | 1.6 | 3.2 | 0.00 | 0.99 | 0.99 | 57 | 1010.9 |
| 20260509221844 | 32 | 140 | 4.8 | 8.0 | 0.00 | 0.99 | 0.99 | 56 | 1010.7 |
| 20260509221342 | 32 | 102 | 4.8 | 4.8 | 0.00 | 0.99 | 0.99 | 56 | 1011.0 |
| 20260509220837 | 32 | 175 | 9.7 | 11.3 | 0.00 | 0.99 | 0.99 | 56 | 1011.0 |
| 20260509220334 | 33 | 251 | 11.3 | 16.1 | 0.00 | 0.99 | 0.99 | 56 | 1011.0 |
| 20260509215829 | 33 | 140 | 3.2 | 4.8 | 0.00 | 0.99 | 0.99 | 53 | 1010.9 |
| 20260509215326 | 33 | 180 | 3.2 | 3.2 | 0.00 | 0.99 | 0.99 | 53 | 1010.9 |
| 20260509214823 | 33 | 208 | 8.0 | 8.0 | 0.00 | 0.99 | 0.99 | 54 | 1010.9 |
| 20260509214320 | 33 | 205 | 4.8 | 4.8 | 0.00 | 0.99 | 0.99 | 55 | 1010.9 |
| 20260509213817 | 33 | 95 | 8.0 | 11.3 | 0.00 | 0.99 | 0.99 | 54 | 1010.9 |
| 20260509213312 | 33 | 102 | 0.0 | 0.0 | 0.00 | 0.99 | 0.99 | 53 | 1010.7 |
| 20260509212810 | 33 | 212 | 8.0 | 11.3 | 0.00 | 0.99 | 0.99 | 56 | 1011.0 |
| 20260509212308 | 33 | 230 | 9.7 | 11.3 | 0.00 | 0.99 | 0.99 | 54 | 1011.0 |
| 20260509211803 | 33 | 221 | 6.4 | 8.0 | 0.00 | 0.99 | 0.99 | 56 | 1011.4 |
| 20260509211259 | 33 | 187 | 8.0 | 8.0 | 0.00 | 0.99 | 0.99 | 55 | 1011.4 |
| 20260509210756 | 33 | 295 | 1.6 | 3.2 | 0.00 | 0.99 | 0.99 | 55 | 1011.2 |
| 20260509210254 | 32 | 140 | 4.8 | 8.0 | 0.00 | 0.99 | 0.99 | 56 | 1011.2 |
| 20260509205753 | 33 | 147 | 11.3 | 11.3 | 0.00 | 0.99 | 0.99 | 55 | 1011.2 |
| 20260509205248 | 33 | 91 | 3.2 | 3.2 | 0.00 | 0.99 | 0.99 | 56 | 1011.1 |
| 20260509204744 | 32 | 7 | 4.8 | 4.8 | 0.00 | 0.99 | 0.99 | 57 | 1011.2 |
| 20260509204241 | 33 | 244 | 3.2 | 8.0 | 0.00 | 0.99 | 0.99 | 56 | 1011.5 |
| 20260509203737 | 33 | 233 | 9.7 | 11.3 | 0.00 | 0.99 | 0.99 | 56 | 1011.4 |
| 20260509203235 | 32 | 210 | 4.8 | 8.0 | 0.00 | 0.99 | 0.99 | 58 | 1011.4 |